This is the latest recevied weather packets stored in our database for station/object KA7EII-13. If no packets are shown the sender has not sent any weather packets the latest 1 day(s).
| Time | Temp. | Humidity | Pressure | Rain* | Wind** | Luminosity | Snow |
|---|---|---|---|---|---|---|---|
| 1778018288 | 17.78° C | 24% | 1098.2 hPa | 0 mm | - | 611 W/m² | - |
| 1778017683 | 18.33° C | 26% | 1098.4 hPa | 0 mm | - | 596 W/m² | - |
| 1778017077 | 18.33° C | 25% | 1098.8 hPa | 0 mm | - | 615 W/m² | - |
| 1778016775 | 17.78° C | 30% | 1098.9 hPa | 0 mm | - | 611 W/m² | - |
| 1778016470 | 18.33° C | 29% | 1098.5 hPa | 0 mm | - | 679 W/m² | - |
| 1778016168 | 17.78° C | 29% | 1098.5 hPa | 0 mm | - | 662 W/m² | - |
| 1778015258 | 17.78° C | 29% | 1099.2 hPa | 0 mm | - | 687 W/m² | - |
| 1778014955 | 17.22° C | 29% | 1099.1 hPa | 0 mm | - | 704 W/m² | - |
| 1778012834 | 17.22° C | 28% | 1099.4 hPa | 0 mm | - | 749 W/m² | - |
| 1778011623 | 16.11° C | 30% | 1099.7 hPa | 0 mm | - | 812 W/m² | - |
| 1778010410 | 16.67° C | 30% | 1099.9 hPa | 0 mm | - | 782 W/m² | - |
| 1778010106 | 16.67° C | 33% | 1099.9 hPa | 0 mm | - | 732 W/m² | - |
| 1778006772 | 15° C | 29% | 1100.4 hPa | 0 mm | - | 764 W/m² | - |
| 1778006469 | 16.11° C | 31% | 1100.3 hPa | 0 mm | - | 740 W/m² | - |
| 1778003441 | 15° C | 30% | 1100.1 hPa | 0 mm | - | 754 W/m² | - |
| 1778001621 | 15° C | 29% | 1100.4 hPa | 0 mm | - | 842 W/m² | - |
| 1778001014 | 14.44° C | 31% | 1100.4 hPa | 0 mm | - | 757 W/m² | - |
| 1777999494 | 14.44° C | 34% | 1100.9 hPa | 0 mm | - | 691 W/m² | - |
| 1777998590 | 13.33° C | 35% | 1100.6 hPa | 0 mm | - | 645 W/m² | - |
| 1777998285 | 13.33° C | 36% | 1100.8 hPa | 0 mm | - | 627 W/m² | - |
| 1777997982 | 12.78° C | 36% | 1100.7 hPa | 0 mm | - | 631 W/m² | - |
| 1777997376 | 12.78° C | 38% | 1100.6 hPa | 0 mm | - | 619 W/m² | - |
| 1777996467 | 12.78° C | 39% | 1100.6 hPa | 0 mm | - | 528 W/m² | - |
| 1777995860 | 12.22° C | 41% | 1100.8 hPa | 0 mm | - | 522 W/m² | - |
| 1777993432 | 10° C | 46% | 1100.9 hPa | 0 mm | - | 311 W/m² | - |
* Rain latest hour (hover to see other rain measurements)
** Current wind speed in m/s (hover to see current wind gust speed)